PRINT OUT SECTION, show ยป

METAR EPBY 161800Z 10005KT CAVOK 18/01 Q1018=

METAR EPGD 161800Z 06007KT CAVOK 10/07 Q1020 =

METAR EPKK 161800Z 04004KT CAVOK 19/07 Q1017 =

METAR EPKT 161800Z 04004KT CAVOK 19/06 Q1017 =

METAR EPLB 161800Z 04004KT CAVOK 15/02 Q1018 =

METAR EPLL 161800Z 04008KT CAVOK 17/01 Q1018 =

METAR EPML 161800Z AUTO 02007KT 9999 NCD 18/06 Q1018=

METAR EPMO 161800Z 31003KT 260V010 CAVOK 15/03 Q1019 =

METAR EPPO 161800Z 08007KT CAVOK 18/04 Q1018 =

METAR EPRA 161800Z NIL=

METAR EPRZ 161800Z 02006KT CAVOK 18/07 Q1018 =

METAR EPSC 161800Z 03006KT 360V060 CAVOK 17/08 Q1018 =

METAR EPSY 161800Z 01006KT CAVOK 14/02 Q1019=

METAR EPWA 161800Z 33002KT CAVOK 17/M00 Q1018 NOSIG=

METAR EPWR 161800Z 07004KT CAVOK 22/05 Q1017 =

METAR EPZG 161800Z 05006KT CAVOK 20/05 Q1017 =